createdAt,value
2018-12-27T00:00:10.295Z,23.50
2018-12-27T00:02:54.938Z,24.43
2018-12-27T00:05:35.510Z,28.80
2018-12-27T00:08:17.686Z,27.27
2018-12-27T00:11:00.663Z,34.33
2018-12-27T00:16:55.746Z,27.15
2018-12-27T00:22:48.667Z,36.58
2018-12-27T00:25:29.128Z,35.28
2018-12-27T00:28:11.401Z,34.10
2018-12-27T00:30:53.634Z,39.65
2018-12-27T00:33:35.449Z,30.43
2018-12-27T00:36:16.899Z,26.82
2018-12-27T00:38:51.508Z,33.83
2018-12-27T00:41:40.116Z,34.35
2018-12-27T00:44:42.631Z,24.35
2018-12-27T00:47:19.598Z,28.35
2018-12-27T00:53:17.599Z,27.65
2018-12-27T00:56:05.388Z,22.90
2018-12-27T00:58:53.258Z,27.17
2018-12-27T01:01:41.217Z,22.40
2018-12-27T01:04:11.172Z,22.90
2018-12-27T01:07:00.109Z,23.90
2018-12-27T01:09:49.112Z,23.38
2018-12-27T01:12:37.629Z,24.05
2018-12-27T01:15:26.077Z,20.52
2018-12-27T01:18:14.712Z,22.20
2018-12-27T01:20:56.077Z,21.75
2018-12-27T01:23:36.862Z,23.90
2018-12-27T01:26:16.647Z,19.62
2018-12-27T01:29:05.209Z,22.73
2018-12-27T01:31:54.193Z,23.47
2018-12-27T01:34:24.067Z,17.85
2018-12-27T01:37:13.202Z,23.90
2018-12-27T01:39:43.039Z,20.30
2018-12-27T01:42:32.088Z,23.15
2018-12-27T01:48:30.412Z,20.35
2018-12-27T01:51:19.186Z,21.48
2018-12-27T01:54:08.021Z,29.10
2018-12-27T01:56:56.797Z,23.40
2018-12-27T01:59:45.522Z,21.93
2018-12-27T02:02:34.121Z,25.08
2018-12-27T02:05:23.093Z,31.00
2018-12-27T02:08:11.414Z,27.45
2018-12-27T02:11:17.439Z,27.65
2018-12-27T02:13:53.688Z,23.55
2018-12-27T02:16:42.375Z,20.77
2018-12-27T02:19:24.783Z,15.38
2018-12-27T02:22:06.746Z,21.75
2018-12-27T02:24:48.527Z,23.30
2018-12-27T02:27:30.176Z,19.70
2018-12-27T02:30:11.959Z,25.37
2018-12-27T02:32:53.241Z,18.42
2018-12-27T02:35:33.997Z,18.65
2018-12-27T02:38:15.112Z,17.42
2018-12-27T02:41:05.896Z,26.82
2018-12-27T02:43:57.495Z,22.25
2018-12-27T02:46:46.535Z,20.17
2018-12-27T02:49:35.285Z,18.40
2018-12-27T02:52:24.841Z,14.20
2018-12-27T02:55:13.663Z,16.25
2018-12-27T02:58:02.557Z,16.87
2018-12-27T03:04:02.037Z,18.23
2018-12-27T03:06:53.014Z,11.70
2018-12-27T03:09:42.243Z,18.65
2018-12-27T03:12:30.968Z,13.35
2018-12-27T03:15:19.902Z,16.55
2018-12-27T03:18:08.944Z,11.35
2018-12-27T03:20:50.418Z,13.65
2018-12-27T03:26:38.153Z,15.95
2018-12-27T03:32:18.817Z,15.48
2018-12-27T03:35:03.338Z,11.68
2018-12-27T03:37:44.441Z,15.45
2018-12-27T03:40:26.256Z,15.43
2018-12-27T03:43:07.643Z,13.95
2018-12-27T03:45:49.214Z,15.80
2018-12-27T03:51:29.183Z,17.60
2018-12-27T03:54:10.642Z,10.65
2018-12-27T04:03:08.770Z,13.60
2018-12-27T04:05:50.085Z,15.75
2018-12-27T04:08:34.561Z,12.40
2018-12-27T04:11:15.834Z,16.70
2018-12-27T04:13:57.619Z,13.00
2018-12-27T04:22:53.596Z,18.27
2018-12-27T04:25:35.017Z,13.43
2018-12-27T04:28:17.846Z,13.35
2018-12-27T04:30:59.437Z,18.67
2018-12-27T04:33:40.383Z,18.40
2018-12-27T04:36:22.034Z,15.65
2018-12-27T04:42:15.620Z,14.68
2018-12-27T04:44:57.159Z,14.28
2018-12-27T04:47:41.646Z,12.73
2018-12-27T04:50:22.280Z,15.18
2018-12-27T04:55:52.532Z,15.53
2018-12-27T04:58:38.623Z,12.30
2018-12-27T05:01:24.222Z,12.00
2018-12-27T05:04:08.228Z,13.43
2018-12-27T05:06:49.815Z,12.00
2018-12-27T05:12:42.744Z,12.23
2018-12-27T05:24:41.033Z,13.32
2018-12-27T05:33:05.832Z,13.65
2018-12-27T05:35:46.425Z,18.62
2018-12-27T05:38:30.172Z,13.35
2018-12-27T05:50:07.386Z,10.68
2018-12-27T05:55:45.411Z,14.00
2018-12-27T05:58:57.842Z,24.63
2018-12-27T06:11:35.590Z,13.48
2018-12-27T06:29:43.931Z,10.78
2018-12-27T06:32:51.678Z,11.95
2018-12-27T06:36:06.826Z,16.17
2018-12-27T06:39:14.946Z,12.95
2018-12-27T06:42:02.925Z,12.00
2018-12-27T06:44:51.190Z,28.47
2018-12-27T06:51:09.711Z,15.93
2018-12-27T06:54:01.017Z,22.10
2018-12-27T06:56:49.259Z,12.82
2018-12-27T06:57:48.835Z,20.20
2018-12-27T07:02:33.089Z,22.77
2018-12-27T07:06:07.758Z,24.10
2018-12-27T07:15:23.538Z,12.33
2018-12-27T07:18:31.232Z,17.42
2018-12-27T07:21:13.698Z,16.85
2018-12-27T07:24:25.264Z,16.87
2018-12-27T07:27:07.819Z,26.40
2018-12-27T07:35:19.993Z,13.85
2018-12-27T07:38:07.550Z,16.65
2018-12-27T07:40:48.294Z,28.95
2018-12-27T07:46:18.733Z,49.33
2018-12-27T08:01:23.426Z,41.77
2018-12-27T08:04:04.427Z,40.52
2018-12-27T08:06:45.583Z,43.50
2018-12-27T08:09:27.187Z,38.02
2018-12-27T08:15:24.448Z,53.75
2018-12-27T08:18:05.813Z,48.55
2018-12-27T08:20:49.597Z,40.40
2018-12-27T08:23:32.342Z,35.65
2018-12-27T08:26:12.998Z,40.08
2018-12-27T08:28:57.439Z,46.10
2018-12-27T08:31:38.940Z,44.98
2018-12-27T08:34:20.745Z,49.33
2018-12-27T08:37:02.197Z,38.73
2018-12-27T08:42:45.708Z,31.73
2018-12-27T08:45:27.394Z,28.30
2018-12-27T08:48:08.604Z,23.55
2018-12-27T08:50:49.481Z,32.20
2018-12-27T08:53:30.840Z,21.55
2018-12-27T08:56:12.390Z,18.65
2018-12-27T08:58:53.142Z,20.17
2018-12-27T09:04:42.993Z,26.40
2018-12-27T09:07:24.845Z,20.50
2018-12-27T09:13:17.931Z,27.20
2018-12-27T09:15:59.197Z,27.45
2018-12-27T09:18:40.048Z,40.83
2018-12-27T09:21:21.476Z,28.00
2018-12-27T09:27:14.804Z,26.73
2018-12-27T09:29:56.486Z,21.30
2018-12-27T09:32:38.274Z,24.47
2018-12-27T09:35:26.119Z,21.60
2018-12-27T09:41:02.382Z,19.27
2018-12-27T09:46:55.659Z,40.15
2018-12-27T09:49:36.929Z,23.62
2018-12-27T09:52:17.612Z,23.20
2018-12-27T09:58:11.719Z,22.95
2018-12-27T10:00:52.305Z,21.95
2018-12-27T10:03:33.119Z,23.00
2018-12-27T10:06:14.523Z,21.35
2018-12-27T10:11:54.328Z,27.73
2018-12-27T10:17:47.985Z,20.90
2018-12-27T10:20:28.619Z,27.42
2018-12-27T10:23:09.933Z,28.92
2018-12-27T10:29:03.567Z,25.62
2018-12-27T10:31:44.269Z,123.00
2018-12-27T10:34:25.298Z,49.45
2018-12-27T10:37:06.956Z,33.20
2018-12-27T10:42:59.924Z,20.02
2018-12-27T10:45:40.819Z,20.95
2018-12-27T10:48:21.386Z,27.02
2018-12-27T10:54:15.311Z,17.70
2018-12-27T10:56:44.080Z,19.57
2018-12-27T10:59:31.800Z,16.63
2018-12-27T11:02:19.497Z,21.60
2018-12-27T11:05:07.182Z,22.57
2018-12-27T11:07:54.909Z,25.60
2018-12-27T11:10:42.616Z,26.33
2018-12-27T11:13:30.315Z,20.93
2018-12-27T11:16:18.061Z,22.90
2018-12-27T11:19:05.724Z,10.90
2018-12-27T11:24:59.320Z,17.67
2018-12-27T11:27:40.675Z,10.60
2018-12-27T11:30:21.609Z,9.80
2018-12-27T11:36:02.005Z,9.07
2018-12-27T11:38:43.653Z,8.20
2018-12-27T11:44:37.582Z,20.30
2018-12-27T11:47:19.242Z,19.30
2018-12-27T11:50:00.775Z,20.97
2018-12-27T11:52:42.385Z,15.37
2018-12-27T11:58:25.373Z,12.00
2018-12-27T12:01:05.820Z,10.33
2018-12-27T12:09:46.603Z,9.53
2018-12-27T12:12:27.310Z,7.50
2018-12-27T12:15:08.288Z,7.50
2018-12-27T12:17:47.854Z,7.83
2018-12-27T12:23:31.169Z,4.10
2018-12-27T12:29:12.320Z,2.57
2018-12-27T12:31:54.737Z,5.10
2018-12-27T12:34:36.166Z,4.73
2018-12-27T12:40:30.234Z,5.57
2018-12-27T12:43:11.076Z,4.67
2018-12-27T12:45:51.601Z,3.73
2018-12-27T12:51:45.606Z,3.47
2018-12-27T12:54:26.538Z,4.03
2018-12-27T12:57:07.079Z,2.87
2018-12-27T13:02:46.603Z,7.07
2018-12-27T13:05:27.995Z,8.60
2018-12-27T13:11:21.615Z,5.33
2018-12-27T13:14:02.268Z,7.87
2018-12-27T13:16:42.823Z,6.10
2018-12-27T13:19:23.738Z,4.03
2018-12-27T13:25:06.165Z,2.73
2018-12-27T13:27:47.565Z,6.37
2018-12-27T13:33:27.345Z,14.17
2018-12-27T13:39:06.993Z,5.13
2018-12-27T13:41:48.508Z,3.40
2018-12-27T13:47:42.500Z,7.83
2018-12-27T13:50:23.859Z,14.73
2018-12-27T13:53:04.825Z,5.93
2018-12-27T13:55:45.611Z,4.60
2018-12-27T14:01:28.653Z,5.70
2018-12-27T14:04:10.095Z,7.27
2018-12-27T14:12:35.827Z,10.77
2018-12-27T14:15:16.885Z,4.60
2018-12-27T14:20:44.282Z,4.70
2018-12-27T14:23:31.845Z,6.13
2018-12-27T14:26:19.423Z,4.53
2018-12-27T14:29:07.282Z,2.33
2018-12-27T14:31:55.113Z,3.13
2018-12-27T14:34:42.827Z,2.77
2018-12-27T14:37:30.508Z,6.63
2018-12-27T14:40:18.257Z,3.00
2018-12-27T14:43:05.987Z,11.63
2018-12-27T14:45:53.706Z,10.83
2018-12-27T14:48:41.656Z,6.70
2018-12-27T14:51:29.403Z,5.57
2018-12-27T14:54:17.196Z,5.57
2018-12-27T14:57:05.011Z,5.67
2018-12-27T14:59:52.859Z,5.87
2018-12-27T15:02:40.648Z,6.37
2018-12-27T15:05:28.428Z,7.90
2018-12-27T15:08:16.205Z,11.87
2018-12-27T15:11:03.926Z,11.70
2018-12-27T15:13:51.538Z,14.10
2018-12-27T15:16:39.306Z,15.63
2018-12-27T15:19:27.082Z,12.50
2018-12-27T15:25:20.767Z,11.77
2018-12-27T15:27:49.440Z,8.07
2018-12-27T15:30:37.154Z,12.90
2018-12-27T15:33:24.740Z,13.47
2018-12-27T15:36:12.393Z,13.20
2018-12-27T15:39:00.015Z,27.97
2018-12-27T15:41:47.946Z,36.73
2018-12-27T15:44:35.839Z,25.82
2018-12-27T15:47:23.718Z,23.47
2018-12-27T15:50:13.976Z,21.90
2018-12-27T15:53:01.668Z,19.00
2018-12-27T15:55:49.634Z,15.38
2018-12-27T15:58:37.615Z,14.53
2018-12-27T16:01:25.224Z,19.65
2018-12-27T16:04:12.970Z,24.80
2018-12-27T16:07:01.954Z,10.05
2018-12-27T16:09:50.060Z,16.37
2018-12-27T16:12:37.804Z,13.18
2018-12-27T16:15:25.768Z,15.90
2018-12-27T16:18:13.431Z,12.95
2018-12-27T16:23:52.976Z,42.27
2018-12-27T16:32:13.720Z,46.75
2018-12-27T16:35:01.498Z,57.43
2018-12-27T16:37:49.367Z,53.48
2018-12-27T16:40:37.370Z,49.20
2018-12-27T16:43:25.320Z,50.45
2018-12-27T16:46:13.080Z,50.00
2018-12-27T16:49:00.641Z,42.35
2018-12-27T16:51:48.709Z,35.35
2018-12-27T16:54:36.585Z,34.38
2018-12-27T16:57:24.831Z,40.95
2018-12-27T17:00:12.485Z,37.50
2018-12-27T17:03:00.114Z,35.63
2018-12-27T17:05:48.195Z,29.82
2018-12-27T17:08:36.030Z,25.60
2018-12-27T17:11:24.169Z,34.45
2018-12-27T17:14:12.477Z,23.83
2018-12-27T17:17:00.738Z,24.27
2018-12-27T17:19:51.595Z,20.10
2018-12-27T17:28:42.132Z,25.77
2018-12-27T17:31:26.094Z,24.05
2018-12-27T17:34:08.911Z,27.80
2018-12-27T17:36:52.466Z,22.10
2018-12-27T17:39:33.938Z,29.07
2018-12-27T17:42:14.862Z,42.25
2018-12-27T17:48:07.846Z,50.05
2018-12-27T17:50:48.571Z,32.88
2018-12-27T17:53:30.784Z,19.87
2018-12-27T17:56:12.343Z,19.00
2018-12-27T18:02:07.785Z,33.10
2018-12-27T18:04:50.763Z,37.83
2018-12-27T18:10:40.988Z,54.15
2018-12-27T18:13:24.595Z,38.83
2018-12-27T18:18:47.791Z,30.05
2018-12-27T18:24:41.746Z,42.98
2018-12-27T18:27:30.224Z,41.60
2018-12-27T18:33:28.357Z,34.27
2018-12-27T18:36:17.553Z,35.68
2018-12-27T18:39:06.799Z,40.78
2018-12-27T18:45:04.977Z,58.68
2018-12-27T18:47:53.683Z,63.63
2018-12-27T18:50:45.434Z,56.45
2018-12-27T18:53:34.378Z,57.78
2018-12-27T18:56:22.844Z,56.48
2018-12-27T18:59:11.896Z,46.60
2018-12-27T19:02:19.227Z,53.02
2018-12-27T19:05:15.115Z,50.08
2018-12-27T19:08:03.609Z,57.70
2018-12-27T19:11:11.471Z,50.55
2018-12-27T19:14:20.809Z,37.10
2018-12-27T19:17:28.368Z,80.60
2018-12-27T19:20:09.827Z,114.25
2018-12-27T19:22:50.745Z,104.10
2018-12-27T19:25:31.512Z,71.00
2018-12-27T19:28:13.086Z,82.17
2018-12-27T19:30:54.359Z,80.35
2018-12-27T19:33:35.440Z,51.33
2018-12-27T19:39:02.644Z,30.27
2018-12-27T19:41:44.114Z,40.75
2018-12-27T19:47:03.521Z,162.45
2018-12-27T19:49:54.671Z,150.27
2018-12-27T19:52:43.825Z,123.33
2018-12-27T19:55:32.331Z,95.17
2018-12-27T19:58:20.852Z,68.50
2018-12-27T20:01:09.495Z,64.07
2018-12-27T20:03:57.429Z,66.05
2018-12-27T20:06:45.274Z,71.47
2018-12-27T20:09:33.176Z,77.47
2018-12-27T20:12:20.963Z,88.25
2018-12-27T20:15:08.746Z,79.80
2018-12-27T20:17:56.639Z,59.80
2018-12-27T20:26:41.739Z,67.37
2018-12-27T20:29:23.606Z,72.05
2018-12-27T20:40:54.551Z,98.42
2018-12-27T20:49:36.639Z,77.20
2018-12-27T20:52:17.582Z,92.17
2018-12-27T20:54:58.849Z,95.32
2018-12-27T20:57:39.901Z,101.90
2018-12-27T21:00:21.275Z,87.17
2018-12-27T21:03:02.759Z,82.57
2018-12-27T21:08:43.181Z,100.62
2018-12-27T21:17:24.752Z,118.77
2018-12-27T21:25:58.536Z,230.37
2018-12-27T21:31:52.977Z,237.97
2018-12-27T21:37:48.713Z,271.68
2018-12-27T21:40:33.268Z,233.00
2018-12-27T21:43:17.733Z,224.27
2018-12-27T21:45:58.992Z,154.90
2018-12-27T21:48:39.912Z,150.45
2018-12-27T21:54:23.181Z,83.78
2018-12-27T21:56:54.898Z,81.85
2018-12-27T21:59:42.802Z,84.58
2018-12-27T22:02:30.758Z,78.52
2018-12-27T22:05:18.842Z,48.73
2018-12-27T22:08:06.643Z,32.65
2018-12-27T22:10:54.434Z,41.45
2018-12-27T22:13:42.466Z,37.80
2018-12-27T22:16:30.304Z,64.80
2018-12-27T22:19:18.312Z,150.35
2018-12-27T22:28:00.421Z,151.63
2018-12-27T22:33:53.671Z,168.95
2018-12-27T22:36:42.331Z,51.05
2018-12-27T22:39:31.010Z,55.48
2018-12-27T22:42:19.867Z,40.48
2018-12-27T22:45:08.808Z,53.48
2018-12-27T22:47:38.416Z,75.52
2018-12-27T22:50:28.464Z,36.15
2018-12-27T22:53:16.393Z,47.27
2018-12-27T22:56:04.852Z,64.10
2018-12-27T23:01:51.391Z,100.97
2018-12-27T23:04:58.292Z,80.30
2018-12-27T23:10:40.142Z,132.87
2018-12-27T23:13:28.212Z,106.30
2018-12-27T23:16:17.014Z,102.75
2018-12-27T23:19:26.070Z,114.45
2018-12-27T23:21:55.961Z,102.95
2018-12-27T23:24:44.380Z,91.90
2018-12-27T23:27:32.632Z,75.80
2018-12-27T23:30:20.777Z,68.47
2018-12-27T23:33:09.198Z,74.00
2018-12-27T23:35:58.133Z,71.55
2018-12-27T23:38:50.253Z,83.97
2018-12-27T23:41:56.722Z,93.62
2018-12-27T23:44:54.365Z,89.28
2018-12-27T23:48:05.347Z,81.05
2018-12-27T23:50:54.089Z,82.62
2018-12-27T23:53:42.793Z,83.00
2018-12-27T23:56:31.257Z,97.78
2018-12-27T23:59:20.018Z,99.77
